createdAt,value
2018-10-18T00:01:34.895Z,9.40
2018-10-18T00:04:05.710Z,9.20
2018-10-18T00:06:34.854Z,9.40
2018-10-18T00:09:05.122Z,9.70
2018-10-18T00:11:34.239Z,9.60
2018-10-18T00:14:03.402Z,9.50
2018-10-18T00:16:32.540Z,9.30
2018-10-18T00:19:01.766Z,9.40
2018-10-18T00:21:30.867Z,9.30
2018-10-18T00:24:00.031Z,9.10
2018-10-18T00:26:29.948Z,9.00
2018-10-18T00:28:59.068Z,9.00
2018-10-18T00:31:28.866Z,9.10
2018-10-18T00:33:58.122Z,9.20
2018-10-18T00:36:27.228Z,9.40
2018-10-18T00:38:56.768Z,9.30
2018-10-18T00:41:25.909Z,9.20
2018-10-18T00:43:55.116Z,9.10
2018-10-18T00:46:24.514Z,8.90
2018-10-18T00:48:53.647Z,8.80
2018-10-18T00:51:23.238Z,8.80
2018-10-18T00:53:52.605Z,8.90
2018-10-18T00:56:21.698Z,9.00
2018-10-18T00:58:50.802Z,9.00
2018-10-18T01:01:19.919Z,9.00
2018-10-18T01:03:50.014Z,9.10
2018-10-18T01:06:19.354Z,9.20
2018-10-18T01:08:48.656Z,9.20
2018-10-18T01:11:17.781Z,8.90
2018-10-18T01:13:46.939Z,8.80
2018-10-18T01:16:16.329Z,8.70
2018-10-18T01:18:45.452Z,8.80
2018-10-18T01:21:14.550Z,8.80
2018-10-18T01:23:43.703Z,8.70
2018-10-18T01:26:12.891Z,8.60
2018-10-18T01:28:42.551Z,8.50
2018-10-18T01:31:11.742Z,8.50
2018-10-18T01:33:40.847Z,8.50
2018-10-18T01:36:10.037Z,8.60
2018-10-18T01:38:39.418Z,8.50
2018-10-18T01:41:08.660Z,8.40
2018-10-18T01:43:37.821Z,8.50
2018-10-18T01:46:07.406Z,8.50
2018-10-18T01:48:37.050Z,8.40
2018-10-18T01:51:06.575Z,8.40
2018-10-18T01:53:36.086Z,8.60
2018-10-18T01:56:05.606Z,8.70
2018-10-18T01:58:34.750Z,8.50
2018-10-18T02:01:04.098Z,8.30
2018-10-18T02:03:33.187Z,8.30
2018-10-18T02:06:02.378Z,8.40
2018-10-18T02:08:31.419Z,8.40
2018-10-18T02:11:00.512Z,8.30
2018-10-18T02:13:29.655Z,8.30
2018-10-18T02:15:58.751Z,8.20
2018-10-18T02:18:29.395Z,8.10
2018-10-18T02:20:58.647Z,8.30
2018-10-18T02:23:27.787Z,8.30
2018-10-18T02:25:56.954Z,8.30
2018-10-18T02:28:26.109Z,8.40
2018-10-18T02:30:55.270Z,8.40
2018-10-18T02:33:24.550Z,8.40
2018-10-18T02:35:53.504Z,8.30
2018-10-18T02:38:23.922Z,8.30
2018-10-18T02:40:53.054Z,8.20
2018-10-18T02:43:22.377Z,8.10
2018-10-18T02:45:51.967Z,8.00
2018-10-18T02:48:21.112Z,8.00
2018-10-18T02:50:50.262Z,8.10
2018-10-18T02:53:19.443Z,8.10
2018-10-18T02:55:49.174Z,8.20
2018-10-18T02:58:19.421Z,8.30
2018-10-18T03:00:49.057Z,8.30
2018-10-18T03:03:17.986Z,8.50
2018-10-18T03:05:47.158Z,8.50
2018-10-18T03:08:16.327Z,8.40
2018-10-18T03:10:45.489Z,8.40
2018-10-18T03:13:14.662Z,8.50
2018-10-18T03:15:43.854Z,8.50
2018-10-18T03:18:13.144Z,8.60
2018-10-18T03:20:42.547Z,8.60
2018-10-18T03:23:11.705Z,8.50
2018-10-18T03:25:40.814Z,8.40
2018-10-18T03:28:09.954Z,8.40
2018-10-18T03:30:39.821Z,8.30
2018-10-18T03:33:08.953Z,8.30
2018-10-18T03:35:38.424Z,8.30
2018-10-18T03:38:07.637Z,8.30
2018-10-18T03:40:37.002Z,8.40
2018-10-18T03:43:06.370Z,8.30
2018-10-18T03:45:35.551Z,8.30
2018-10-18T03:48:04.834Z,8.40
2018-10-18T03:50:33.939Z,8.40
2018-10-18T03:53:03.360Z,8.50
2018-10-18T03:55:32.535Z,8.60
2018-10-18T03:58:01.869Z,8.60
2018-10-18T04:00:30.997Z,8.50
2018-10-18T04:03:00.445Z,8.50
2018-10-18T04:05:29.757Z,8.60
2018-10-18T04:07:58.941Z,8.60
2018-10-18T04:10:28.120Z,8.40
2018-10-18T04:12:57.323Z,8.10
2018-10-18T04:15:26.898Z,8.10
2018-10-18T04:17:56.602Z,8.00
2018-10-18T04:20:25.741Z,7.90
2018-10-18T04:22:54.893Z,7.80
2018-10-18T04:25:24.108Z,7.80
2018-10-18T04:27:53.205Z,7.70
2018-10-18T04:30:22.866Z,7.60
2018-10-18T04:32:52.034Z,7.60
2018-10-18T04:35:23.245Z,7.60
2018-10-18T04:37:52.593Z,7.70
2018-10-18T04:40:21.782Z,7.70
2018-10-18T04:42:50.942Z,7.70
2018-10-18T04:45:20.082Z,7.70
2018-10-18T04:47:49.282Z,7.60
2018-10-18T04:50:18.397Z,7.60
2018-10-18T04:52:47.586Z,7.60
2018-10-18T04:55:16.814Z,7.90
2018-10-18T04:57:45.870Z,8.00
2018-10-18T05:00:15.486Z,8.00
2018-10-18T05:02:44.860Z,8.00
2018-10-18T05:05:30.955Z,7.80
2018-10-18T05:08:00.830Z,7.70
2018-10-18T05:10:30.609Z,7.70
2018-10-18T05:12:59.936Z,7.70
2018-10-18T05:15:29.991Z,7.60
2018-10-18T05:17:59.142Z,7.70
2018-10-18T05:20:28.294Z,7.70
2018-10-18T05:22:57.807Z,7.80
2018-10-18T05:25:27.034Z,7.80
2018-10-18T05:27:56.057Z,7.80
2018-10-18T05:30:26.248Z,7.60
2018-10-18T05:32:55.807Z,7.50
2018-10-18T05:35:24.953Z,7.40
2018-10-18T05:37:54.138Z,7.40
2018-10-18T05:40:23.261Z,7.50
2018-10-18T05:42:52.538Z,7.50
2018-10-18T05:45:21.662Z,7.60
2018-10-18T05:47:51.243Z,7.70
2018-10-18T05:50:21.080Z,7.70
2018-10-18T05:52:50.252Z,8.00
2018-10-18T05:55:19.631Z,8.20
2018-10-18T05:57:48.809Z,8.40
2018-10-18T06:00:18.924Z,8.60
2018-10-18T06:02:48.221Z,8.80
2018-10-18T06:05:17.992Z,8.70
2018-10-18T06:07:47.242Z,8.70
2018-10-18T06:10:33.461Z,8.60
2018-10-18T06:13:02.625Z,8.50
2018-10-18T06:15:31.686Z,8.30
2018-10-18T06:18:01.654Z,8.30
2018-10-18T06:20:30.770Z,8.40
2018-10-18T06:22:59.969Z,8.60
2018-10-18T06:25:29.030Z,8.70
2018-10-18T06:27:58.192Z,8.70
2018-10-18T06:30:27.332Z,8.70
2018-10-18T06:32:57.043Z,8.70
2018-10-18T06:35:27.489Z,8.80
2018-10-18T06:37:56.637Z,9.00
2018-10-18T06:40:25.793Z,9.30
2018-10-18T06:42:54.964Z,9.60
2018-10-18T06:45:24.129Z,9.60
2018-10-18T06:47:53.573Z,9.70
2018-10-18T06:50:22.442Z,9.80
2018-10-18T06:52:51.562Z,9.90
2018-10-18T06:55:21.530Z,9.90
2018-10-18T06:57:50.709Z,9.90
2018-10-18T07:00:22.487Z,10.00
2018-10-18T07:02:52.279Z,10.10
2018-10-18T07:05:21.637Z,10.10
2018-10-18T07:07:50.954Z,10.10
2018-10-18T07:10:20.086Z,10.30
2018-10-18T07:12:49.285Z,10.50
2018-10-18T07:15:19.174Z,10.60
2018-10-18T07:17:49.036Z,10.60
2018-10-18T07:20:18.062Z,10.80
2018-10-18T07:22:47.197Z,10.90
2018-10-18T07:25:16.697Z,11.00
2018-10-18T07:27:45.846Z,11.10
2018-10-18T07:30:15.651Z,11.40
2018-10-18T07:32:45.094Z,11.70
2018-10-18T07:35:14.924Z,11.80
2018-10-18T07:37:44.100Z,11.80
2018-10-18T07:40:15.569Z,11.60
2018-10-18T07:42:44.870Z,11.60
2018-10-18T07:45:15.357Z,11.40
2018-10-18T07:47:45.185Z,11.30
2018-10-18T07:50:14.391Z,11.50
2018-10-18T07:52:43.530Z,11.60
2018-10-18T07:55:12.745Z,12.10
2018-10-18T07:57:41.966Z,12.60
2018-10-18T08:00:14.545Z,13.30
2018-10-18T08:02:44.786Z,13.60
2018-10-18T08:05:14.714Z,14.30
2018-10-18T08:07:44.565Z,15.20
2018-10-18T08:10:15.456Z,15.70
2018-10-18T08:12:44.638Z,15.50
2018-10-18T08:15:15.011Z,16.30
2018-10-18T08:17:44.753Z,17.00
2018-10-18T08:20:14.478Z,17.60
2018-10-18T08:22:44.950Z,17.10
2018-10-18T08:25:13.739Z,17.30
2018-10-18T08:27:42.947Z,17.90
2018-10-18T08:30:13.422Z,17.60
2018-10-18T08:32:42.594Z,17.00
2018-10-18T08:35:12.800Z,16.60
2018-10-18T08:37:42.379Z,16.00
2018-10-18T08:40:11.470Z,15.40
2018-10-18T08:48:40.355Z,14.90
2018-10-18T08:51:09.951Z,14.80
2018-10-18T08:53:39.367Z,15.00
2018-10-18T08:56:09.010Z,15.10
2018-10-18T08:58:38.250Z,15.20
2018-10-18T09:01:07.541Z,16.10
2018-10-18T09:03:37.484Z,17.10
2018-10-18T09:06:06.729Z,18.20
2018-10-18T09:08:36.845Z,18.60
2018-10-18T09:11:06.593Z,18.90
2018-10-18T09:13:35.751Z,19.40
2018-10-18T09:16:06.020Z,19.80
2018-10-18T09:18:35.149Z,20.90
2018-10-18T09:21:04.266Z,21.20
2018-10-18T09:23:33.416Z,21.50
2018-10-18T09:26:02.614Z,22.00
2018-10-18T09:28:32.258Z,21.50
2018-10-18T09:31:01.873Z,21.30
2018-10-18T09:33:31.093Z,22.40
2018-10-18T09:36:00.639Z,23.00
2018-10-18T09:38:29.919Z,23.70
2018-10-18T09:40:59.470Z,23.50
2018-10-18T09:43:29.210Z,23.20
2018-10-18T09:45:58.600Z,23.60
2018-10-18T09:48:28.211Z,23.70
2018-10-18T09:50:57.722Z,23.00
2018-10-18T09:53:26.897Z,23.20
2018-10-18T09:55:56.431Z,23.10
2018-10-18T09:58:25.546Z,23.30
2018-10-18T10:01:01.357Z,23.40
2018-10-18T10:03:37.203Z,23.50
2018-10-18T10:06:07.050Z,23.60
2018-10-18T10:08:36.658Z,23.40
2018-10-18T10:11:05.862Z,23.60
2018-10-18T10:13:35.263Z,22.80
2018-10-18T10:16:04.506Z,23.90
2018-10-18T10:18:33.854Z,24.50
2018-10-18T10:21:05.102Z,25.00
2018-10-18T10:23:34.206Z,25.60
2018-10-18T10:26:03.662Z,26.10
2018-10-18T10:28:32.850Z,25.10
2018-10-18T10:31:02.089Z,25.50
2018-10-18T10:33:46.319Z,25.60
2018-10-18T10:36:15.452Z,24.90
2018-10-18T10:38:44.580Z,24.30
2018-10-18T10:41:13.765Z,25.00
2018-10-18T10:43:42.882Z,25.50
2018-10-18T10:46:12.052Z,26.10
2018-10-18T10:48:41.573Z,25.50
2018-10-18T10:51:10.919Z,25.10
2018-10-18T10:53:40.008Z,23.20
2018-10-18T10:56:09.154Z,21.90
2018-10-18T10:58:38.254Z,22.10
2018-10-18T11:01:10.378Z,22.10
2018-10-18T11:03:40.925Z,21.50
2018-10-18T11:06:10.671Z,21.70
2018-10-18T11:08:39.758Z,20.90
2018-10-18T11:11:09.969Z,20.80
2018-10-18T11:13:39.071Z,21.10
2018-10-18T11:16:08.651Z,21.40
2018-10-18T11:18:38.857Z,21.40
2018-10-18T11:21:09.415Z,20.60
2018-10-18T11:23:38.494Z,19.60
2018-10-18T11:26:08.870Z,18.90
2018-10-18T11:28:38.007Z,18.80
2018-10-18T11:31:07.127Z,18.70
2018-10-18T11:33:36.241Z,18.90
2018-10-18T11:36:05.412Z,18.60
2018-10-18T11:38:34.527Z,18.50
2018-10-18T11:41:04.376Z,18.30
2018-10-18T11:43:34.264Z,18.40
2018-10-18T11:46:03.494Z,18.60
2018-10-18T11:48:32.687Z,18.70
2018-10-18T11:51:01.832Z,18.70
2018-10-18T11:53:31.423Z,18.70
2018-10-18T11:56:00.575Z,18.80
2018-10-18T11:58:29.746Z,19.00
2018-10-18T12:00:59.530Z,19.00
2018-10-18T12:03:28.635Z,19.30
2018-10-18T12:05:57.810Z,19.50
2018-10-18T12:08:26.934Z,19.60
2018-10-18T12:10:56.084Z,19.80
2018-10-18T12:13:25.608Z,19.70
2018-10-18T12:15:54.753Z,19.50
2018-10-18T12:18:23.950Z,19.50
2018-10-18T12:20:53.177Z,19.50
2018-10-18T12:23:22.331Z,19.60
2018-10-18T12:25:51.678Z,19.50
2018-10-18T12:28:20.366Z,19.60
2018-10-18T12:30:49.545Z,19.90
2018-10-18T12:33:18.642Z,20.30
2018-10-18T12:35:47.756Z,20.30
2018-10-18T12:38:17.019Z,20.30
2018-10-18T12:40:46.092Z,20.10
2018-10-18T12:43:15.183Z,20.10
2018-10-18T12:45:44.335Z,20.20
2018-10-18T12:48:13.558Z,20.20
2018-10-18T12:50:43.318Z,20.30
2018-10-18T12:53:12.488Z,20.10
2018-10-18T12:55:41.594Z,20.20
2018-10-18T12:58:10.782Z,20.20
2018-10-18T13:00:39.915Z,20.30
2018-10-18T13:03:10.460Z,20.20
2018-10-18T13:05:39.570Z,20.30
2018-10-18T13:08:08.723Z,20.40
2018-10-18T13:10:37.827Z,20.40
2018-10-18T13:13:06.961Z,20.40
2018-10-18T13:15:36.134Z,20.50
2018-10-18T13:18:06.463Z,20.60
2018-10-18T13:20:35.534Z,20.40
2018-10-18T13:23:04.716Z,20.50
2018-10-18T13:25:34.161Z,20.70
2018-10-18T13:28:03.927Z,20.70
2018-10-18T13:30:33.258Z,20.40
2018-10-18T13:33:02.411Z,20.50
2018-10-18T13:35:31.587Z,20.40
2018-10-18T13:38:01.041Z,20.40
2018-10-18T13:40:30.162Z,20.40
2018-10-18T13:42:59.354Z,20.50
2018-10-18T13:45:28.474Z,20.50
2018-10-18T13:47:58.208Z,20.40
2018-10-18T13:50:28.274Z,20.50
2018-10-18T13:52:59.150Z,20.50
2018-10-18T13:55:28.314Z,20.60
2018-10-18T13:57:57.914Z,20.80
2018-10-18T14:00:28.626Z,20.60
2018-10-18T14:02:57.794Z,20.60
2018-10-18T14:05:28.302Z,20.60
2018-10-18T14:07:57.903Z,20.50
2018-10-18T14:10:33.045Z,20.60
2018-10-18T14:13:02.350Z,20.60
2018-10-18T14:15:31.661Z,20.60
2018-10-18T14:18:00.816Z,20.40
2018-10-18T14:20:29.971Z,20.50
2018-10-18T14:22:59.169Z,20.40
2018-10-18T14:25:28.309Z,20.30
2018-10-18T14:27:57.441Z,20.30
2018-10-18T14:30:27.122Z,20.30
2018-10-18T14:32:56.182Z,20.10
2018-10-18T14:35:25.318Z,20.10
2018-10-18T14:37:54.488Z,20.10
2018-10-18T14:40:23.565Z,20.20
2018-10-18T14:42:52.720Z,20.00
2018-10-18T14:45:21.927Z,20.00
2018-10-18T14:47:51.135Z,19.90
2018-10-18T14:50:20.346Z,19.90
2018-10-18T14:52:49.519Z,19.80
2018-10-18T14:55:18.633Z,19.80
2018-10-18T14:57:47.802Z,19.80
2018-10-18T15:00:17.042Z,19.80
2018-10-18T15:02:46.158Z,19.80
2018-10-18T15:05:15.460Z,19.70
2018-10-18T15:07:44.930Z,19.70
2018-10-18T15:10:15.247Z,19.70
2018-10-18T15:12:44.892Z,19.60
2018-10-18T15:15:14.653Z,19.60
2018-10-18T15:17:43.887Z,19.60
2018-10-18T15:20:14.149Z,19.60
2018-10-18T15:22:43.601Z,19.50
2018-10-18T15:25:13.524Z,19.40
2018-10-18T15:27:43.224Z,19.50
2018-10-18T15:30:12.802Z,19.40
2018-10-18T15:32:42.038Z,19.30
2018-10-18T15:35:12.021Z,19.30
2018-10-18T15:37:41.452Z,19.30
2018-10-18T15:40:10.670Z,19.20
2018-10-18T15:42:40.602Z,19.20
2018-10-18T15:45:10.467Z,19.00
2018-10-18T15:47:46.247Z,19.00
2018-10-18T15:50:15.433Z,18.90
2018-10-18T15:52:44.611Z,18.80
2018-10-18T15:55:13.786Z,18.90
2018-10-18T15:57:43.327Z,19.00
2018-10-18T16:00:12.742Z,18.90
2018-10-18T16:02:42.170Z,18.80
2018-10-18T16:05:11.577Z,18.70
2018-10-18T16:07:40.551Z,18.60
2018-10-18T16:10:10.894Z,18.50
2018-10-18T16:12:40.640Z,18.40
2018-10-18T16:15:11.538Z,18.30
2018-10-18T16:17:41.098Z,18.20
2018-10-18T16:20:11.633Z,18.10
2018-10-18T16:22:40.794Z,18.00
2018-10-18T16:25:11.306Z,17.90
2018-10-18T16:27:41.589Z,17.80
2018-10-18T16:30:11.618Z,17.70
2018-10-18T16:32:41.482Z,17.70
2018-10-18T16:35:10.832Z,17.70
2018-10-18T16:37:39.850Z,17.50
2018-10-18T16:40:11.877Z,17.60
2018-10-18T16:42:41.034Z,17.60
2018-10-18T16:45:12.991Z,17.50
2018-10-18T16:47:42.217Z,17.50
2018-10-18T16:50:11.995Z,17.30
2018-10-18T16:52:41.050Z,17.30
2018-10-18T16:55:10.814Z,17.10
2018-10-18T16:57:39.957Z,17.00
2018-10-18T17:00:10.524Z,16.90
2018-10-18T17:02:39.747Z,17.00
2018-10-18T17:05:09.022Z,17.00
2018-10-18T17:07:38.608Z,16.90
2018-10-18T17:10:08.032Z,16.90
2018-10-18T17:12:37.277Z,16.80
2018-10-18T17:15:07.646Z,16.70
2018-10-18T17:17:37.667Z,16.70
2018-10-18T17:20:08.015Z,16.70
2018-10-18T17:22:37.451Z,16.70
2018-10-18T17:25:08.016Z,16.60
2018-10-18T17:27:37.714Z,16.50
2018-10-18T17:30:08.119Z,16.30
2018-10-18T17:32:38.324Z,16.30
2018-10-18T17:35:07.472Z,16.20
2018-10-18T17:37:36.622Z,16.20
2018-10-18T17:40:06.445Z,16.20
2018-10-18T17:42:36.389Z,16.20
2018-10-18T17:45:06.963Z,16.20
2018-10-18T17:47:36.471Z,16.10
2018-10-18T17:50:07.436Z,16.10
2018-10-18T17:52:37.923Z,15.90
2018-10-18T17:55:08.543Z,16.00
2018-10-18T17:57:38.348Z,16.00
2018-10-18T18:00:11.493Z,16.00
2018-10-18T18:02:40.799Z,16.00
2018-10-18T18:05:11.391Z,16.10
2018-10-18T18:07:40.859Z,16.10
2018-10-18T18:10:13.821Z,16.10
2018-10-18T18:12:42.826Z,16.10
2018-10-18T18:15:12.106Z,16.00
2018-10-18T18:17:41.486Z,16.10
2018-10-18T18:20:12.067Z,15.90
2018-10-18T18:22:41.602Z,15.90
2018-10-18T18:25:11.850Z,15.70
2018-10-18T18:27:41.168Z,15.60
2018-10-18T18:30:13.357Z,15.80
2018-10-18T18:32:43.074Z,15.70
2018-10-18T18:35:12.290Z,15.50
2018-10-18T18:37:41.429Z,15.20
2018-10-18T18:40:11.194Z,15.00
2018-10-18T18:42:40.899Z,14.90
2018-10-18T18:45:15.422Z,14.60
2018-10-18T18:47:44.516Z,14.60
2018-10-18T18:50:13.711Z,14.40
2018-10-18T18:52:43.574Z,14.40
2018-10-18T18:55:12.731Z,14.30
2018-10-18T18:57:42.066Z,14.10
2018-10-18T19:00:11.584Z,14.00
2018-10-18T19:02:43.122Z,13.90
2018-10-18T19:05:12.446Z,13.90
2018-10-18T19:07:41.758Z,13.80
2018-10-18T19:10:11.334Z,13.80
2018-10-18T19:12:40.467Z,13.60
2018-10-18T19:15:09.952Z,13.60
2018-10-18T19:17:40.372Z,13.50
2018-10-18T19:20:10.382Z,13.60
2018-10-18T19:22:39.565Z,13.70
2018-10-18T19:25:09.170Z,13.60
2018-10-18T19:27:38.923Z,13.70
2018-10-18T19:30:14.889Z,13.70
2018-10-18T19:32:44.601Z,13.60
2018-10-18T19:35:13.853Z,13.60
2018-10-18T19:37:43.066Z,13.60
2018-10-18T19:40:12.301Z,13.40
2018-10-18T19:42:41.466Z,13.30
2018-10-18T19:45:10.858Z,13.40
2018-10-18T19:47:40.489Z,13.30
2018-10-18T19:50:09.966Z,13.30
2018-10-18T19:52:39.198Z,13.20
2018-10-18T19:55:08.847Z,13.10
2018-10-18T19:57:38.087Z,13.00
2018-10-18T20:00:08.815Z,12.90
2018-10-18T20:02:38.954Z,12.90
2018-10-18T20:05:08.562Z,12.80
2018-10-18T20:07:37.877Z,12.60
2018-10-18T20:10:07.582Z,12.50
2018-10-18T20:12:36.839Z,12.50
2018-10-18T20:15:07.937Z,12.60
2018-10-18T20:17:37.503Z,12.60
2018-10-18T20:20:09.281Z,12.60
2018-10-18T20:22:39.131Z,12.50
2018-10-18T20:25:09.152Z,12.60
2018-10-18T20:27:38.792Z,12.50
2018-10-18T20:30:12.313Z,12.30
2018-10-18T20:32:42.098Z,12.20
2018-10-18T20:35:12.182Z,12.40
2018-10-18T20:37:42.090Z,12.50
2018-10-18T20:40:13.854Z,12.30
2018-10-18T20:42:43.539Z,12.20
2018-10-18T20:45:19.183Z,12.10
2018-10-18T20:47:48.906Z,12.10
2018-10-18T20:50:18.106Z,11.90
2018-10-18T20:52:48.344Z,11.90
2018-10-18T20:55:17.525Z,11.90
2018-10-18T20:57:46.686Z,12.00
2018-10-18T21:00:15.918Z,12.00
2018-10-18T21:02:46.203Z,11.90
2018-10-18T21:05:15.171Z,11.90
2018-10-18T21:07:44.742Z,11.80
2018-10-18T21:10:15.231Z,12.00
2018-10-18T21:12:44.547Z,12.10
2018-10-18T21:15:15.346Z,12.10
2018-10-18T21:17:45.203Z,12.40
2018-10-18T21:20:14.323Z,12.30
2018-10-18T21:22:43.623Z,12.30
2018-10-18T21:25:12.758Z,12.30
2018-10-18T21:27:42.442Z,12.20
2018-10-18T21:30:11.552Z,12.10
2018-10-18T21:32:41.447Z,12.20
2018-10-18T21:35:10.647Z,12.10
2018-10-18T21:37:40.452Z,12.00
2018-10-18T21:40:09.279Z,11.90
2018-10-18T21:42:38.534Z,11.90
2018-10-18T21:45:07.721Z,11.90
2018-10-18T21:47:36.906Z,12.00
2018-10-18T21:50:06.758Z,12.20
2018-10-18T21:52:35.888Z,12.10
2018-10-18T21:55:05.452Z,12.00
2018-10-18T21:57:34.577Z,12.00
2018-10-18T22:00:03.785Z,11.90
2018-10-18T22:02:33.026Z,12.00
2018-10-18T22:05:02.214Z,11.90
2018-10-18T22:07:31.312Z,11.80
2018-10-18T22:10:01.157Z,11.70
2018-10-18T22:12:30.986Z,12.20
2018-10-18T22:15:00.727Z,12.60
2018-10-18T22:17:29.891Z,12.60
2018-10-18T22:19:59.138Z,12.80
2018-10-18T22:22:27.974Z,12.50
2018-10-18T22:24:57.086Z,12.20
2018-10-18T22:27:26.220Z,12.20
2018-10-18T22:29:55.992Z,12.20
2018-10-18T22:32:25.155Z,12.20
2018-10-18T22:34:54.608Z,12.00
2018-10-18T22:37:23.750Z,11.70
2018-10-18T22:39:52.974Z,11.80
2018-10-18T22:42:22.167Z,11.90
2018-10-18T22:44:51.744Z,11.90
2018-10-18T22:47:20.856Z,11.80
2018-10-18T22:49:49.996Z,12.00
2018-10-18T22:52:19.143Z,12.00
2018-10-18T22:54:49.191Z,12.00
2018-10-18T22:57:18.432Z,12.30
2018-10-18T22:59:47.950Z,12.50
2018-10-18T23:02:17.388Z,12.40
2018-10-18T23:04:46.622Z,12.20
2018-10-18T23:07:15.871Z,12.20
2018-10-18T23:09:45.018Z,12.20
2018-10-18T23:12:14.273Z,12.20
2018-10-18T23:14:43.493Z,12.20
2018-10-18T23:17:12.687Z,12.30
2018-10-18T23:19:41.782Z,12.40
2018-10-18T23:22:10.939Z,12.50
2018-10-18T23:24:40.346Z,12.30
2018-10-18T23:27:09.670Z,11.90
2018-10-18T23:29:39.782Z,11.90
2018-10-18T23:32:09.774Z,11.80
2018-10-18T23:34:38.930Z,12.10
2018-10-18T23:37:08.071Z,11.70
2018-10-18T23:39:37.578Z,11.70
2018-10-18T23:42:06.757Z,11.80
2018-10-18T23:44:35.925Z,11.70
2018-10-18T23:47:05.926Z,11.80
2018-10-18T23:49:35.630Z,11.70
2018-10-18T23:52:05.130Z,11.70
2018-10-18T23:54:34.838Z,11.60
2018-10-18T23:57:04.059Z,11.60
2018-10-18T23:59:33.195Z,11.50
